createdAt,value
2022-09-14T00:01:45.128Z,13.17
2022-09-14T00:04:15.914Z,13.15
2022-09-14T00:06:44.763Z,13.14
2022-09-14T00:09:18.471Z,13.14
2022-09-14T00:11:46.868Z,13.14
2022-09-14T00:14:15.588Z,13.16
2022-09-14T00:16:44.637Z,13.16
2022-09-14T00:19:19.745Z,13.14
2022-09-14T00:21:52.051Z,13.12
2022-09-14T00:24:22.549Z,13.12
2022-09-14T00:26:51.027Z,13.11
2022-09-14T00:29:19.716Z,13.12
2022-09-14T00:31:48.113Z,13.10
2022-09-14T00:34:18.349Z,13.03
2022-09-14T00:36:48.391Z,13.05
2022-09-14T00:39:18.794Z,13.05
2022-09-14T00:41:50.308Z,13.05
2022-09-14T00:45:00.761Z,13.03
2022-09-14T00:47:30.679Z,13.02
2022-09-14T00:50:01.392Z,12.99
2022-09-14T00:52:34.631Z,13.01
2022-09-14T00:55:07.219Z,13.01
2022-09-14T00:57:39.596Z,13.01
2022-09-14T01:00:11.424Z,13.01
2022-09-14T01:02:40.733Z,13.00
2022-09-14T01:05:11.852Z,13.02
2022-09-14T01:08:02.475Z,13.02
2022-09-14T01:10:44.842Z,13.01
2022-09-14T01:13:26.786Z,13.00
2022-09-14T01:16:04.393Z,12.99
2022-09-14T01:18:38.268Z,12.97
2022-09-14T01:21:11.387Z,12.99
2022-09-14T01:23:48.909Z,12.97
2022-09-14T01:26:49.646Z,12.99
2022-09-14T01:29:22.434Z,12.98
2022-09-14T01:31:57.140Z,13.01
2022-09-14T01:34:32.882Z,13.04
2022-09-14T01:37:06.103Z,13.01
2022-09-14T01:39:37.386Z,13.03
2022-09-14T01:42:07.251Z,13.02
2022-09-14T01:44:40.527Z,13.05
2022-09-14T01:47:13.450Z,13.05
2022-09-14T01:49:47.078Z,13.05
2022-09-14T01:52:20.989Z,13.06
2022-09-14T01:54:53.760Z,13.05
2022-09-14T01:57:27.364Z,13.07
2022-09-14T02:00:02.852Z,13.08
2022-09-14T02:02:38.008Z,13.08
2022-09-14T02:05:10.584Z,13.04
2022-09-14T02:07:40.036Z,13.07
2022-09-14T02:10:13.930Z,13.04
2022-09-14T02:12:44.057Z,13.06
2022-09-14T02:15:16.093Z,12.95
2022-09-14T02:17:45.024Z,12.99
2022-09-14T02:20:20.254Z,12.96
2022-09-14T02:22:48.785Z,12.87
2022-09-14T02:25:17.268Z,12.89
2022-09-14T02:27:47.542Z,12.94
2022-09-14T02:30:18.326Z,12.94
2022-09-14T02:32:56.597Z,12.81
2022-09-14T02:35:32.210Z,12.83
2022-09-14T02:38:11.006Z,12.84
2022-09-14T02:40:43.085Z,12.87
2022-09-14T02:43:22.559Z,12.87
2022-09-14T02:46:02.463Z,12.83
2022-09-14T02:48:40.048Z,12.69
2022-09-14T02:51:18.264Z,12.71
2022-09-14T02:53:52.369Z,12.75
2022-09-14T02:56:22.222Z,12.74
2022-09-14T02:58:50.556Z,12.68
2022-09-14T03:01:23.947Z,12.52
2022-09-14T03:03:52.475Z,12.47
2022-09-14T03:06:21.239Z,12.54
2022-09-14T03:08:50.652Z,12.55
2022-09-14T03:11:19.102Z,12.60
2022-09-14T03:13:47.759Z,12.60
2022-09-14T03:16:17.886Z,12.44
2022-09-14T03:18:47.766Z,12.37
2022-09-14T03:21:18.262Z,12.37
2022-09-14T03:23:49.023Z,12.24
2022-09-14T03:26:19.316Z,12.29
2022-09-14T03:28:52.017Z,12.31
2022-09-14T03:31:20.766Z,12.30
2022-09-14T03:33:55.102Z,12.33
2022-09-14T03:36:24.091Z,12.32
2022-09-14T03:38:53.791Z,12.20
2022-09-14T03:41:23.828Z,12.25
2022-09-14T03:43:52.572Z,12.22
2022-09-14T03:46:22.852Z,12.21
2022-09-14T03:48:53.036Z,12.26
2022-09-14T03:51:21.410Z,12.27
2022-09-14T03:53:50.201Z,12.29
2022-09-14T03:56:21.203Z,12.28
2022-09-14T03:58:50.401Z,12.32
2022-09-14T04:01:20.377Z,12.31
2022-09-14T04:03:49.327Z,12.35
2022-09-14T04:06:20.135Z,12.25
2022-09-14T04:08:48.741Z,12.25
2022-09-14T04:11:19.286Z,12.23
2022-09-14T04:13:48.457Z,12.21
2022-09-14T04:16:18.448Z,12.21
2022-09-14T04:18:47.030Z,12.25
2022-09-14T04:21:17.111Z,12.31
2022-09-14T04:26:36.165Z,12.42
2022-09-14T04:29:05.084Z,12.50
2022-09-14T04:31:34.220Z,12.56
2022-09-14T04:34:08.065Z,12.56
2022-09-14T04:36:36.491Z,12.55
2022-09-14T04:39:07.136Z,12.56
2022-09-14T04:41:35.573Z,12.58
2022-09-14T04:44:04.013Z,12.65
2022-09-14T04:46:35.192Z,12.67
2022-09-14T04:49:04.161Z,12.72
2022-09-14T04:51:34.104Z,12.67
2022-09-14T04:54:04.041Z,12.59
2022-09-14T04:56:35.905Z,12.52
2022-09-14T04:59:05.843Z,12.55
2022-09-14T05:01:37.024Z,12.46
2022-09-14T05:04:06.487Z,12.46
2022-09-14T05:06:37.840Z,12.48
2022-09-14T05:09:08.549Z,12.45
2022-09-14T05:11:39.453Z,12.42
2022-09-14T05:14:07.983Z,12.40
2022-09-14T05:16:38.163Z,12.46
2022-09-14T05:19:08.741Z,12.45
2022-09-14T05:21:38.498Z,12.49
2022-09-14T05:24:12.113Z,12.48
2022-09-14T05:26:42.679Z,12.49
2022-09-14T05:29:14.373Z,12.46
2022-09-14T05:31:43.479Z,12.50
2022-09-14T05:34:12.750Z,12.45
2022-09-14T05:36:41.981Z,12.48
2022-09-14T05:39:11.695Z,12.51
2022-09-14T05:41:41.851Z,12.52
2022-09-14T05:44:10.612Z,12.53
2022-09-14T05:46:39.073Z,12.48
2022-09-14T05:49:07.727Z,12.45
2022-09-14T05:51:36.282Z,12.40
2022-09-14T05:54:09.528Z,12.35
2022-09-14T05:56:37.914Z,12.33
2022-09-14T05:59:07.757Z,12.39
2022-09-14T06:01:36.174Z,12.35
2022-09-14T06:04:05.035Z,12.43
2022-09-14T06:06:34.527Z,12.41
2022-09-14T06:09:04.133Z,12.42
2022-09-14T06:11:36.347Z,12.42
2022-09-14T06:14:05.491Z,12.42
2022-09-14T06:16:36.109Z,12.44
2022-09-14T06:19:05.156Z,12.45
2022-09-14T06:21:35.813Z,12.52
2022-09-14T06:24:05.032Z,12.60
2022-09-14T06:26:33.625Z,12.66
2022-09-14T06:29:02.019Z,12.66
2022-09-14T06:31:30.449Z,12.68
2022-09-14T06:34:00.618Z,12.68
2022-09-14T06:36:29.984Z,12.69
2022-09-14T06:39:00.916Z,12.66
2022-09-14T06:41:30.780Z,12.70
2022-09-14T06:44:01.853Z,12.75
2022-09-14T06:46:32.794Z,12.83
2022-09-14T06:49:04.928Z,12.84
2022-09-14T06:51:36.486Z,12.87
2022-09-14T06:54:06.228Z,12.83
2022-09-14T06:56:36.416Z,12.83
2022-09-14T06:59:05.709Z,12.95
2022-09-14T07:01:34.557Z,12.87
2022-09-14T07:04:05.428Z,12.83
2022-09-14T07:06:40.728Z,12.85
2022-09-14T07:09:09.369Z,12.85
2022-09-14T07:11:38.547Z,12.78
2022-09-14T07:14:07.786Z,12.69
2022-09-14T07:16:37.718Z,12.67
2022-09-14T07:19:09.445Z,12.66
2022-09-14T07:21:38.496Z,12.69
2022-09-14T07:24:07.316Z,12.68
2022-09-14T07:26:40.630Z,12.65
2022-09-14T07:29:12.210Z,12.60
2022-09-14T07:31:43.174Z,12.62
2022-09-14T07:34:13.840Z,12.64
2022-09-14T07:36:43.185Z,12.69
2022-09-14T07:39:13.491Z,12.75
2022-09-14T07:41:43.602Z,12.81
2022-09-14T07:44:15.836Z,12.89
2022-09-14T07:46:45.861Z,12.88
2022-09-14T07:49:17.218Z,12.91
2022-09-14T07:51:45.993Z,12.92
2022-09-14T07:54:16.471Z,13.01
2022-09-14T07:56:45.490Z,13.04
2022-09-14T08:02:04.541Z,13.14
2022-09-14T08:04:35.354Z,13.19
2022-09-14T08:07:03.806Z,13.17
2022-09-14T08:09:32.340Z,13.24
2022-09-14T08:12:00.666Z,13.27
2022-09-14T08:14:29.043Z,13.22
2022-09-14T08:16:57.602Z,13.26
2022-09-14T08:19:26.530Z,13.31
2022-09-14T08:21:56.406Z,13.38
2022-09-14T08:24:24.702Z,13.47
2022-09-14T08:26:54.013Z,13.49
2022-09-14T08:29:22.326Z,13.41
2022-09-14T08:31:52.180Z,13.50
2022-09-14T08:34:21.389Z,13.52
2022-09-14T08:36:50.245Z,13.52
2022-09-14T08:39:20.460Z,13.60
2022-09-14T08:42:00.259Z,13.65
2022-09-14T08:44:31.720Z,13.69
2022-09-14T08:47:03.001Z,13.70
2022-09-14T08:49:48.042Z,13.67
2022-09-14T08:52:24.299Z,13.69
2022-09-14T08:54:56.940Z,13.74
2022-09-14T08:57:33.063Z,13.80
2022-09-14T09:00:09.612Z,13.81
2022-09-14T09:03:13.419Z,13.82
2022-09-14T09:05:45.609Z,13.78
2022-09-14T09:08:20.935Z,13.68
2022-09-14T09:10:53.602Z,13.64
2022-09-14T09:13:26.966Z,13.60
2022-09-14T09:15:58.621Z,13.61
2022-09-14T09:18:38.407Z,13.67
2022-09-14T09:21:11.883Z,13.66
2022-09-14T09:23:41.364Z,13.69
2022-09-14T09:26:17.808Z,13.68
2022-09-14T09:28:49.673Z,13.70
2022-09-14T09:31:20.097Z,13.67
2022-09-14T09:34:18.235Z,13.66
2022-09-14T09:36:49.903Z,13.71
2022-09-14T09:39:18.834Z,13.67
2022-09-14T09:41:54.145Z,13.67
2022-09-14T09:44:22.550Z,13.65
2022-09-14T09:46:53.276Z,13.67
2022-09-14T09:49:24.442Z,13.65
2022-09-14T09:51:54.105Z,13.71
2022-09-14T09:54:32.053Z,13.73
2022-09-14T09:57:04.001Z,13.78
2022-09-14T09:59:36.490Z,13.75
2022-09-14T10:02:28.087Z,13.77
2022-09-14T10:05:02.782Z,13.71
2022-09-14T10:07:36.267Z,13.59
2022-09-14T10:10:09.018Z,13.64
2022-09-14T10:12:58.367Z,13.61
2022-09-14T10:15:30.557Z,13.63
2022-09-14T10:18:08.681Z,13.60
2022-09-14T10:20:38.772Z,13.64
2022-09-14T10:23:24.164Z,13.65
2022-09-14T10:25:54.376Z,13.62
2022-09-14T10:28:28.540Z,13.61
2022-09-14T10:31:02.714Z,13.64
2022-09-14T10:33:31.472Z,13.71
2022-09-14T10:36:10.248Z,13.74
2022-09-14T10:38:43.004Z,13.80
2022-09-14T10:41:22.658Z,13.76
2022-09-14T10:44:22.747Z,13.76
2022-09-14T10:47:04.938Z,13.79
2022-09-14T10:49:50.170Z,13.75
2022-09-14T10:52:27.585Z,13.75
2022-09-14T10:55:21.092Z,13.73
2022-09-14T10:57:56.372Z,13.74
2022-09-14T11:00:26.892Z,13.76
2022-09-14T11:03:46.143Z,13.78
2022-09-14T11:06:34.019Z,13.80
2022-09-14T11:09:03.778Z,13.83
2022-09-14T11:11:45.392Z,13.86
2022-09-14T11:14:31.302Z,13.91
2022-09-14T11:17:15.114Z,13.91
2022-09-14T11:19:56.057Z,13.96
2022-09-14T11:22:34.177Z,13.99
2022-09-14T11:25:07.519Z,14.01
2022-09-14T11:27:41.083Z,13.96
2022-09-14T11:30:15.907Z,13.93
2022-09-14T11:32:50.165Z,13.95
2022-09-14T11:35:23.264Z,13.96
2022-09-14T11:37:57.036Z,14.01
2022-09-14T11:40:30.718Z,13.96
2022-09-14T11:43:05.189Z,13.94
2022-09-14T11:45:41.450Z,13.94
2022-09-14T11:48:41.921Z,13.93
2022-09-14T11:51:13.676Z,13.95
2022-09-14T11:53:43.024Z,13.93
2022-09-14T11:56:26.873Z,13.97
2022-09-14T11:58:57.849Z,13.96
2022-09-14T12:01:35.740Z,14.02
2022-09-14T12:04:20.008Z,14.03
2022-09-14T12:06:56.182Z,14.04
2022-09-14T12:09:51.582Z,14.09
2022-09-14T12:12:33.640Z,14.13
2022-09-14T12:15:05.030Z,14.14
2022-09-14T12:17:40.349Z,14.13
2022-09-14T12:20:45.702Z,14.14
2022-09-14T12:23:23.777Z,14.16
2022-09-14T12:26:36.728Z,14.20
2022-09-14T12:29:37.483Z,14.18
2022-09-14T12:32:26.157Z,14.20
2022-09-14T12:35:31.774Z,14.30
2022-09-14T12:38:01.985Z,14.31
2022-09-14T12:40:37.510Z,14.33
2022-09-14T12:43:48.969Z,14.36
2022-09-14T12:46:41.044Z,14.33
2022-09-14T12:49:31.503Z,14.35
2022-09-14T12:52:11.300Z,14.39
2022-09-14T12:54:57.453Z,14.38
2022-09-14T12:57:35.538Z,14.39
2022-09-14T13:00:13.095Z,14.42
2022-09-14T13:03:02.593Z,14.41
2022-09-14T13:05:33.943Z,14.42
2022-09-14T13:08:09.392Z,14.42
2022-09-14T13:10:46.761Z,14.45
2022-09-14T13:13:18.924Z,14.46
2022-09-14T13:15:54.188Z,14.44
2022-09-14T13:18:32.361Z,14.45
2022-09-14T13:21:02.983Z,14.47
2022-09-14T13:23:34.107Z,14.43
2022-09-14T13:26:11.062Z,14.46
2022-09-14T13:28:40.583Z,14.50
2022-09-14T13:31:15.285Z,14.48
2022-09-14T15:24:31.191Z,14.81
2022-09-14T15:27:00.074Z,14.84
2022-09-14T15:29:28.573Z,14.87
2022-09-14T15:31:57.449Z,14.88
2022-09-14T15:34:26.016Z,14.90
2022-09-14T15:36:55.666Z,14.92
2022-09-14T15:39:26.376Z,14.94
2022-09-14T15:41:56.960Z,14.96
2022-09-14T15:44:25.465Z,14.96
2022-09-14T15:46:53.958Z,14.97
2022-09-14T15:49:23.727Z,15.00
2022-09-14T15:51:56.393Z,15.00
2022-09-14T15:54:27.556Z,14.99
2022-09-14T15:57:00.193Z,15.00
2022-09-14T15:59:29.280Z,15.00
2022-09-14T16:01:58.148Z,14.99
2022-09-14T16:04:27.689Z,15.00
2022-09-14T16:06:56.120Z,15.00
2022-09-14T16:09:24.520Z,15.00
2022-09-14T16:11:53.007Z,15.01
2022-09-14T16:14:22.993Z,15.01
2022-09-14T16:16:51.377Z,15.02
2022-09-14T16:19:20.051Z,15.03
2022-09-14T16:21:53.435Z,15.04
2022-09-14T16:24:23.959Z,15.05
2022-09-14T16:26:52.753Z,15.04
2022-09-14T16:29:24.421Z,15.04
2022-09-14T16:31:55.304Z,15.04
2022-09-14T16:34:29.472Z,15.03
2022-09-14T16:36:58.915Z,15.05
2022-09-14T16:39:29.514Z,15.06
2022-09-14T16:42:00.064Z,15.07
2022-09-14T16:44:30.634Z,15.07
2022-09-14T16:46:59.648Z,15.05
2022-09-14T16:49:28.682Z,15.06
2022-09-14T16:51:57.886Z,15.06
2022-09-14T16:54:26.835Z,15.04
2022-09-14T16:56:57.278Z,15.04
2022-09-14T16:59:26.037Z,15.04
2022-09-14T17:01:56.102Z,15.05
2022-09-14T17:04:25.792Z,15.05
2022-09-14T17:06:56.239Z,15.05
2022-09-14T17:09:27.459Z,15.05
2022-09-14T17:11:57.251Z,15.03
2022-09-14T17:14:28.711Z,15.03
2022-09-14T17:16:59.161Z,15.03
2022-09-14T17:19:28.160Z,15.01
2022-09-14T17:21:56.696Z,15.00
2022-09-14T17:24:26.096Z,14.99
2022-09-14T17:26:54.482Z,14.99
2022-09-14T17:29:23.010Z,14.98
2022-09-14T17:31:55.838Z,14.98
2022-09-14T17:34:26.056Z,14.97
2022-09-14T17:36:54.643Z,14.96
2022-09-14T17:39:23.053Z,14.96
2022-09-14T17:41:51.531Z,14.96
2022-09-14T17:44:20.123Z,14.95
2022-09-14T17:46:52.981Z,14.96
2022-09-14T17:49:23.123Z,14.95
2022-09-14T17:51:53.510Z,14.94
2022-09-14T17:54:21.979Z,14.93
2022-09-14T17:56:50.445Z,14.92
2022-09-14T17:59:21.168Z,14.94
2022-09-14T18:01:50.018Z,14.95
2022-09-14T18:04:18.757Z,14.95
2022-09-14T18:06:49.037Z,14.96
2022-09-14T18:09:20.778Z,14.94
2022-09-14T18:11:50.742Z,14.94
2022-09-14T18:14:19.803Z,14.95
2022-09-14T18:16:48.387Z,14.94
2022-09-14T18:19:17.556Z,14.93
2022-09-14T18:21:49.073Z,14.93
2022-09-14T18:24:22.624Z,14.93
2022-09-14T18:26:51.208Z,14.90
2022-09-14T18:29:23.226Z,14.90
2022-09-14T18:31:52.065Z,14.90
2022-09-14T18:34:21.280Z,14.89
2022-09-14T18:36:51.635Z,14.88
2022-09-14T18:39:22.851Z,14.87
2022-09-14T18:41:53.832Z,14.88
2022-09-14T18:44:22.755Z,14.89
2022-09-14T18:46:51.958Z,14.90
2022-09-14T18:49:21.704Z,14.91
2022-09-14T18:51:50.326Z,14.91
2022-09-14T18:54:18.723Z,14.91
2022-09-14T18:56:48.626Z,14.92
2022-09-14T18:59:17.272Z,14.92
2022-09-14T19:01:45.940Z,14.93
2022-09-14T19:04:15.956Z,14.93
2022-09-14T19:06:44.720Z,14.91
2022-09-14T19:09:13.354Z,14.91
2022-09-14T19:11:42.237Z,14.92
2022-09-14T19:14:13.973Z,14.90
2022-09-14T19:16:43.162Z,14.88
2022-09-14T19:19:14.619Z,14.89
2022-09-14T19:21:43.163Z,14.88
2022-09-14T19:24:13.518Z,14.88
2022-09-14T19:26:45.559Z,14.85
2022-09-14T19:29:17.159Z,14.85
2022-09-14T19:31:45.947Z,14.85
2022-09-14T19:34:14.444Z,14.85
2022-09-14T19:36:42.860Z,14.85
2022-09-14T19:39:11.323Z,14.84
2022-09-14T19:41:40.113Z,14.84
2022-09-14T19:44:09.356Z,14.82
2022-09-14T19:46:39.866Z,14.82
2022-09-14T19:49:08.784Z,14.82
2022-09-14T19:51:37.284Z,14.83
2022-09-14T19:54:05.915Z,14.83
2022-09-14T19:56:34.477Z,14.82
2022-09-14T19:59:04.351Z,14.82
2022-09-14T20:01:33.761Z,14.82
2022-09-14T20:04:04.613Z,14.82
2022-09-14T20:06:34.653Z,14.81
2022-09-14T20:09:04.862Z,14.81
2022-09-14T20:11:35.726Z,14.81
2022-09-14T20:14:06.705Z,14.81
2022-09-14T20:16:37.267Z,14.81
2022-09-14T20:19:09.712Z,14.80
2022-09-14T20:21:38.478Z,14.80
2022-09-14T20:24:17.483Z,14.79
2022-09-14T20:26:46.789Z,14.79
2022-09-14T20:29:15.954Z,14.79
2022-09-14T20:31:44.761Z,14.78
2022-09-14T20:34:16.389Z,14.79
2022-09-14T20:36:45.144Z,14.78
2022-09-14T20:39:13.583Z,14.78
2022-09-14T20:41:42.365Z,14.78
2022-09-14T20:44:11.005Z,14.76
2022-09-14T20:46:40.942Z,14.78
2022-09-14T20:49:12.761Z,14.75
2022-09-14T20:51:43.445Z,14.76
2022-09-14T20:54:14.308Z,14.76
2022-09-14T20:56:43.591Z,14.75
2022-09-14T20:59:14.028Z,14.73
2022-09-14T21:01:44.157Z,14.74
2022-09-14T21:04:14.654Z,14.74
2022-09-14T21:06:46.697Z,14.74
2022-09-14T21:09:16.563Z,14.73
2022-09-14T21:11:46.339Z,14.72
2022-09-14T21:14:15.912Z,14.71
2022-09-14T21:16:46.844Z,14.72
2022-09-14T21:19:18.095Z,14.71
2022-09-14T21:21:49.011Z,14.69
2022-09-14T21:24:18.803Z,14.68
2022-09-14T21:26:47.312Z,14.68
2022-09-14T21:29:17.594Z,14.67
2022-09-14T21:31:45.964Z,14.66
2022-09-14T21:34:14.450Z,14.66
2022-09-14T21:36:44.917Z,14.67
2022-09-14T21:39:16.615Z,14.66
2022-09-14T21:41:46.445Z,14.66
2022-09-14T21:44:15.338Z,14.65
2022-09-14T21:46:44.644Z,14.63
2022-09-14T21:49:15.712Z,14.63
2022-09-14T21:51:45.090Z,14.64
2022-09-14T21:54:15.470Z,14.64
2022-09-14T21:56:46.745Z,14.64
2022-09-14T21:59:17.226Z,14.61
2022-09-14T22:01:46.251Z,14.61
2022-09-14T22:04:17.517Z,14.61
2022-09-14T22:06:46.354Z,14.61
2022-09-14T22:09:18.202Z,14.62
2022-09-14T22:11:47.321Z,14.61
2022-09-14T22:14:22.421Z,14.60
2022-09-14T22:16:51.002Z,14.60
2022-09-14T22:19:21.448Z,14.59
2022-09-14T22:21:50.202Z,14.60
2022-09-14T22:24:22.890Z,14.59
2022-09-14T22:26:51.538Z,14.59
2022-09-14T22:29:20.238Z,14.60
2022-09-14T22:31:49.169Z,14.60
2022-09-14T22:34:18.432Z,14.58
2022-09-14T22:36:46.848Z,14.57
2022-09-14T22:39:15.595Z,14.57
2022-09-14T22:41:45.354Z,14.56
2022-09-14T22:44:14.315Z,14.56
2022-09-14T22:46:43.323Z,14.57
2022-09-14T22:49:11.796Z,14.56
2022-09-14T22:51:40.491Z,14.55
2022-09-14T22:54:08.927Z,14.55
2022-09-14T22:56:39.355Z,14.54
2022-09-14T22:59:10.755Z,14.56
2022-09-14T23:01:41.663Z,14.55
2022-09-14T23:04:12.401Z,14.56
2022-09-14T23:06:42.555Z,14.56
2022-09-14T23:09:13.261Z,14.56
2022-09-14T23:11:42.342Z,14.54
2022-09-14T23:14:12.136Z,14.55
2022-09-14T23:16:40.763Z,14.56
2022-09-14T23:19:09.435Z,14.56
2022-09-14T23:21:37.882Z,14.56
2022-09-14T23:24:08.233Z,14.57
2022-09-14T23:26:36.705Z,14.57
2022-09-14T23:29:06.864Z,14.57
2022-09-14T23:31:36.980Z,14.57
2022-09-14T23:34:06.330Z,14.57
2022-09-14T23:36:35.381Z,14.57
2022-09-14T23:39:04.053Z,14.58
2022-09-14T23:41:32.733Z,14.58
2022-09-14T23:44:01.184Z,14.58
2022-09-14T23:46:29.655Z,14.57
2022-09-14T23:48:59.417Z,14.58
2022-09-14T23:51:27.785Z,14.58
2022-09-14T23:53:56.174Z,14.58
2022-09-14T23:56:24.612Z,14.58
2022-09-14T23:58:53.214Z,14.57
